sensor_id;sensor_type;location;lat;lon;timestamp;P1;durP1;ratioP1;P2;durP2;ratioP2
9322;SDS011;4700;48.822;9.270;2023-02-03T00:02:41;2.73;;;2.57;;
9322;SDS011;4700;48.822;9.270;2023-02-03T00:05:28;2.70;;;2.57;;
9322;SDS011;4700;48.822;9.270;2023-02-03T00:08:14;4.33;;;3.13;;
9322;SDS011;4700;48.822;9.270;2023-02-03T00:11:02;2.03;;;1.83;;
9322;SDS011;4700;48.822;9.270;2023-02-03T00:13:49;3.13;;;2.90;;
9322;SDS011;4700;48.822;9.270;2023-02-03T00:16:34;2.50;;;2.40;;
9322;SDS011;4700;48.822;9.270;2023-02-03T00:19:20;2.27;;;2.17;;
9322;SDS011;4700;48.822;9.270;2023-02-03T00:22:07;2.53;;;2.33;;
9322;SDS011;4700;48.822;9.270;2023-02-03T00:24:53;3.50;;;2.40;;
9322;SDS011;4700;48.822;9.270;2023-02-03T00:27:38;2.57;;;2.47;;
9322;SDS011;4700;48.822;9.270;2023-02-03T00:30:24;3.07;;;2.80;;
9322;SDS011;4700;48.822;9.270;2023-02-03T00:33:11;2.17;;;2.07;;
9322;SDS011;4700;48.822;9.270;2023-02-03T00:35:57;2.57;;;2.47;;
9322;SDS011;4700;48.822;9.270;2023-02-03T00:38:43;2.47;;;2.37;;
9322;SDS011;4700;48.822;9.270;2023-02-03T00:41:30;2.50;;;2.30;;
9322;SDS011;4700;48.822;9.270;2023-02-03T00:44:15;2.43;;;2.33;;
9322;SDS011;4700;48.822;9.270;2023-02-03T00:47:01;2.40;;;2.20;;
9322;SDS011;4700;48.822;9.270;2023-02-03T00:49:50;2.40;;;2.30;;
9322;SDS011;4700;48.822;9.270;2023-02-03T00:52:35;2.20;;;2.10;;
9322;SDS011;4700;48.822;9.270;2023-02-03T00:55:22;1.97;;;1.97;;
9322;SDS011;4700;48.822;9.270;2023-02-03T00:58:08;2.43;;;2.33;;
9322;SDS011;4700;48.822;9.270;2023-02-03T01:00:53;2.93;;;2.10;;
9322;SDS011;4700;48.822;9.270;2023-02-03T01:03:40;2.70;;;2.50;;
9322;SDS011;4700;48.822;9.270;2023-02-03T01:06:26;4.63;;;2.60;;
9322;SDS011;4700;48.822;9.270;2023-02-03T01:09:12;3.60;;;2.33;;
9322;SDS011;4700;48.822;9.270;2023-02-03T01:12:00;2.23;;;2.13;;
9322;SDS011;4700;48.822;9.270;2023-02-03T01:14:46;2.17;;;2.07;;
9322;SDS011;4700;48.822;9.270;2023-02-03T01:17:31;2.47;;;2.27;;
9322;SDS011;4700;48.822;9.270;2023-02-03T01:20:17;2.53;;;2.33;;
9322;SDS011;4700;48.822;9.270;2023-02-03T01:23:04;2.30;;;2.20;;
9322;SDS011;4700;48.822;9.270;2023-02-03T01:25:49;2.73;;;2.53;;
9322;SDS011;4700;48.822;9.270;2023-02-03T01:28:36;4.90;;;3.83;;
9322;SDS011;4700;48.822;9.270;2023-02-03T01:31:24;2.60;;;2.50;;
9322;SDS011;4700;48.822;9.270;2023-02-03T01:34:12;2.43;;;2.27;;
9322;SDS011;4700;48.822;9.270;2023-02-03T01:36:59;2.40;;;2.20;;
9322;SDS011;4700;48.822;9.270;2023-02-03T01:39:45;2.37;;;2.27;;
9322;SDS011;4700;48.822;9.270;2023-02-03T01:42:31;2.50;;;2.37;;
9322;SDS011;4700;48.822;9.270;2023-02-03T01:45:18;3.13;;;2.43;;
9322;SDS011;4700;48.822;9.270;2023-02-03T01:48:04;2.47;;;2.37;;
9322;SDS011;4700;48.822;9.270;2023-02-03T01:50:51;2.93;;;2.73;;
9322;SDS011;4700;48.822;9.270;2023-02-03T01:53:39;2.43;;;2.33;;
9322;SDS011;4700;48.822;9.270;2023-02-03T01:56:26;2.43;;;2.33;;
9322;SDS011;4700;48.822;9.270;2023-02-03T01:59:16;2.80;;;2.60;;
9322;SDS011;4700;48.822;9.270;2023-02-03T02:02:06;2.70;;;2.57;;
9322;SDS011;4700;48.822;9.270;2023-02-03T02:04:54;2.47;;;2.30;;
9322;SDS011;4700;48.822;9.270;2023-02-03T02:07:44;2.60;;;2.40;;
9322;SDS011;4700;48.822;9.270;2023-02-03T02:10:32;2.37;;;2.27;;
9322;SDS011;4700;48.822;9.270;2023-02-03T02:13:18;2.57;;;2.47;;
9322;SDS011;4700;48.822;9.270;2023-02-03T02:16:05;2.30;;;2.20;;
9322;SDS011;4700;48.822;9.270;2023-02-03T02:19:01;3.30;;;2.90;;
9322;SDS011;4700;48.822;9.270;2023-02-03T02:22:05;3.10;;;3.00;;
9322;SDS011;4700;48.822;9.270;2023-02-03T02:25:13;2.17;;;2.07;;
9322;SDS011;4700;48.822;9.270;2023-02-03T02:28:21;2.70;;;2.50;;
9322;SDS011;4700;48.822;9.270;2023-02-03T02:34:38;4.07;;;3.73;;
9322;SDS011;4700;48.822;9.270;2023-02-03T02:37:34;3.13;;;2.93;;
9322;SDS011;4700;48.822;9.270;2023-02-03T02:40:29;2.40;;;2.30;;
9322;SDS011;4700;48.822;9.270;2023-02-03T02:43:20;2.87;;;2.67;;
9322;SDS011;4700;48.822;9.270;2023-02-03T02:46:12;3.20;;;2.97;;
9322;SDS011;4700;48.822;9.270;2023-02-03T02:49:03;3.33;;;3.03;;
9322;SDS011;4700;48.822;9.270;2023-02-03T02:51:53;3.63;;;2.70;;
9322;SDS011;4700;48.822;9.270;2023-02-03T02:54:41;2.40;;;2.30;;
9322;SDS011;4700;48.822;9.270;2023-02-03T02:57:32;2.97;;;2.77;;
9322;SDS011;4700;48.822;9.270;2023-02-03T03:00:20;3.00;;;2.53;;
9322;SDS011;4700;48.822;9.270;2023-02-03T03:03:14;2.23;;;2.13;;
9322;SDS011;4700;48.822;9.270;2023-02-03T03:06:04;2.73;;;2.47;;
9322;SDS011;4700;48.822;9.270;2023-02-03T03:08:53;4.47;;;4.03;;
9322;SDS011;4700;48.822;9.270;2023-02-03T03:11:47;2.80;;;2.60;;
9322;SDS011;4700;48.822;9.270;2023-02-03T03:14:35;3.17;;;2.80;;
9322;SDS011;4700;48.822;9.270;2023-02-03T03:17:23;2.23;;;2.13;;
9322;SDS011;4700;48.822;9.270;2023-02-03T03:20:13;2.67;;;2.47;;
9322;SDS011;4700;48.822;9.270;2023-02-03T03:23:05;3.13;;;2.43;;
9322;SDS011;4700;48.822;9.270;2023-02-03T03:25:53;2.60;;;2.03;;
9322;SDS011;4700;48.822;9.270;2023-02-03T03:28:47;3.40;;;3.10;;
9322;SDS011;4700;48.822;9.270;2023-02-03T03:31:35;2.40;;;2.30;;
9322;SDS011;4700;48.822;9.270;2023-02-03T03:34:23;2.83;;;2.40;;
9322;SDS011;4700;48.822;9.270;2023-02-03T03:37:09;2.37;;;2.10;;
9322;SDS011;4700;48.822;9.270;2023-02-03T03:40:01;3.10;;;2.90;;
9322;SDS011;4700;48.822;9.270;2023-02-03T03:42:53;2.20;;;2.10;;
9322;SDS011;4700;48.822;9.270;2023-02-03T03:45:44;2.80;;;2.53;;
9322;SDS011;4700;48.822;9.270;2023-02-03T03:48:35;3.53;;;3.20;;
9322;SDS011;4700;48.822;9.270;2023-02-03T03:51:26;2.70;;;2.60;;
9322;SDS011;4700;48.822;9.270;2023-02-03T03:54:15;2.80;;;2.27;;
9322;SDS011;4700;48.822;9.270;2023-02-03T03:57:07;4.33;;;2.47;;
9322;SDS011;4700;48.822;9.270;2023-02-03T03:59:57;2.47;;;2.37;;
9322;SDS011;4700;48.822;9.270;2023-02-03T04:02:47;2.77;;;2.57;;
9322;SDS011;4700;48.822;9.270;2023-02-03T04:05:36;2.33;;;2.23;;
9322;SDS011;4700;48.822;9.270;2023-02-03T04:08:23;2.90;;;2.70;;
9322;SDS011;4700;48.822;9.270;2023-02-03T04:10:56;1.97;;;1.87;;
9322;SDS011;4700;48.822;9.270;2023-02-03T04:13:43;2.87;;;2.67;;
9322;SDS011;4700;48.822;9.270;2023-02-03T04:16:29;2.43;;;2.23;;
9322;SDS011;4700;48.822;9.270;2023-02-03T04:19:14;2.10;;;1.93;;
9322;SDS011;4700;48.822;9.270;2023-02-03T04:22:00;2.27;;;2.17;;
9322;SDS011;4700;48.822;9.270;2023-02-03T04:24:46;2.40;;;2.27;;
9322;SDS011;4700;48.822;9.270;2023-02-03T04:27:32;2.27;;;2.13;;
9322;SDS011;4700;48.822;9.270;2023-02-03T04:30:19;2.37;;;2.27;;
9322;SDS011;4700;48.822;9.270;2023-02-03T04:33:05;2.50;;;2.40;;
9322;SDS011;4700;48.822;9.270;2023-02-03T04:35:51;2.20;;;2.10;;
9322;SDS011;4700;48.822;9.270;2023-02-03T04:38:36;2.70;;;2.23;;
9322;SDS011;4700;48.822;9.270;2023-02-03T04:41:22;2.10;;;2.00;;
9322;SDS011;4700;48.822;9.270;2023-02-03T04:44:09;1.97;;;1.97;;
9322;SDS011;4700;48.822;9.270;2023-02-03T04:46:56;2.77;;;2.67;;
9322;SDS011;4700;48.822;9.270;2023-02-03T04:49:42;2.10;;;2.00;;
9322;SDS011;4700;48.822;9.270;2023-02-03T04:52:27;2.10;;;2.00;;
9322;SDS011;4700;48.822;9.270;2023-02-03T04:55:13;2.47;;;2.37;;
9322;SDS011;4700;48.822;9.270;2023-02-03T04:57:59;2.17;;;2.07;;
9322;SDS011;4700;48.822;9.270;2023-02-03T05:00:45;2.63;;;2.03;;
9322;SDS011;4700;48.822;9.270;2023-02-03T05:03:32;4.10;;;3.37;;
9322;SDS011;4700;48.822;9.270;2023-02-03T05:06:21;2.60;;;2.40;;
9322;SDS011;4700;48.822;9.270;2023-02-03T05:09:07;5.60;;;4.13;;
9322;SDS011;4700;48.822;9.270;2023-02-03T05:11:52;3.17;;;2.93;;
9322;SDS011;4700;48.822;9.270;2023-02-03T05:14:40;3.03;;;2.83;;
9322;SDS011;4700;48.822;9.270;2023-02-03T05:17:26;2.50;;;2.30;;
9322;SDS011;4700;48.822;9.270;2023-02-03T05:20:13;2.73;;;2.53;;
9322;SDS011;4700;48.822;9.270;2023-02-03T05:22:59;3.00;;;2.80;;
9322;SDS011;4700;48.822;9.270;2023-02-03T05:25:44;2.70;;;2.50;;
9322;SDS011;4700;48.822;9.270;2023-02-03T05:28:30;2.80;;;2.70;;
9322;SDS011;4700;48.822;9.270;2023-02-03T05:31:16;2.90;;;2.80;;
9322;SDS011;4700;48.822;9.270;2023-02-03T05:34:02;3.03;;;2.80;;
9322;SDS011;4700;48.822;9.270;2023-02-03T05:36:49;3.17;;;2.97;;
9322;SDS011;4700;48.822;9.270;2023-02-03T05:39:44;2.83;;;2.73;;
9322;SDS011;4700;48.822;9.270;2023-02-03T05:42:32;2.83;;;2.73;;
9322;SDS011;4700;48.822;9.270;2023-02-03T05:45:16;7.00;;;4.90;;
9322;SDS011;4700;48.822;9.270;2023-02-03T05:48:02;4.30;;;3.90;;
9322;SDS011;4700;48.822;9.270;2023-02-03T05:50:51;3.03;;;2.83;;
9322;SDS011;4700;48.822;9.270;2023-02-03T05:53:39;4.47;;;3.27;;
9322;SDS011;4700;48.822;9.270;2023-02-03T05:56:24;3.30;;;3.00;;
9322;SDS011;4700;48.822;9.270;2023-02-03T05:59:10;12.53;;;7.13;;
9322;SDS011;4700;48.822;9.270;2023-02-03T06:01:56;2.93;;;2.73;;
9322;SDS011;4700;48.822;9.270;2023-02-03T06:04:42;4.03;;;3.20;;
9322;SDS011;4700;48.822;9.270;2023-02-03T06:07:28;4.27;;;3.87;;
9322;SDS011;4700;48.822;9.270;2023-02-03T06:10:15;4.53;;;3.47;;
9322;SDS011;4700;48.822;9.270;2023-02-03T06:13:07;5.53;;;4.13;;
9322;SDS011;4700;48.822;9.270;2023-02-03T06:15:56;5.27;;;4.43;;
9322;SDS011;4700;48.822;9.270;2023-02-03T06:18:42;5.47;;;3.93;;
9322;SDS011;4700;48.822;9.270;2023-02-03T06:21:28;4.47;;;4.07;;
9322;SDS011;4700;48.822;9.270;2023-02-03T06:24:13;2.70;;;2.50;;
9322;SDS011;4700;48.822;9.270;2023-02-03T06:27:01;6.03;;;4.20;;
9322;SDS011;4700;48.822;9.270;2023-02-03T06:29:48;3.97;;;3.70;;
9322;SDS011;4700;48.822;9.270;2023-02-03T06:32:34;4.60;;;4.20;;
9322;SDS011;4700;48.822;9.270;2023-02-03T06:35:20;4.27;;;3.93;;
9322;SDS011;4700;48.822;9.270;2023-02-03T06:38:06;3.47;;;3.27;;
9322;SDS011;4700;48.822;9.270;2023-02-03T06:40:51;3.80;;;3.60;;
9322;SDS011;4700;48.822;9.270;2023-02-03T06:43:39;4.87;;;4.47;;
9322;SDS011;4700;48.822;9.270;2023-02-03T06:46:24;3.80;;;3.63;;
9322;SDS011;4700;48.822;9.270;2023-02-03T06:49:12;4.33;;;3.93;;
9322;SDS011;4700;48.822;9.270;2023-02-03T06:51:59;8.13;;;5.40;;
9322;SDS011;4700;48.822;9.270;2023-02-03T06:54:45;13.40;;;6.77;;
9322;SDS011;4700;48.822;9.270;2023-02-03T06:57:30;3.50;;;3.30;;
9322;SDS011;4700;48.822;9.270;2023-02-03T07:00:18;5.00;;;4.50;;
9322;SDS011;4700;48.822;9.270;2023-02-03T07:03:05;6.27;;;4.90;;
9322;SDS011;4700;48.822;9.270;2023-02-03T07:05:51;8.93;;;4.80;;
9322;SDS011;4700;48.822;9.270;2023-02-03T07:08:37;4.80;;;4.50;;
9322;SDS011;4700;48.822;9.270;2023-02-03T07:11:24;5.43;;;5.13;;
9322;SDS011;4700;48.822;9.270;2023-02-03T07:14:10;8.47;;;5.40;;
9322;SDS011;4700;48.822;9.270;2023-02-03T07:16:57;15.00;;;8.30;;
9322;SDS011;4700;48.822;9.270;2023-02-03T07:19:44;4.33;;;4.03;;
9322;SDS011;4700;48.822;9.270;2023-02-03T07:22:31;4.80;;;3.40;;
9322;SDS011;4700;48.822;9.270;2023-02-03T07:25:17;5.07;;;3.03;;
9322;SDS011;4700;48.822;9.270;2023-02-03T07:28:03;10.33;;;4.93;;
9322;SDS011;4700;48.822;9.270;2023-02-03T07:30:49;11.90;;;7.23;;
9322;SDS011;4700;48.822;9.270;2023-02-03T07:33:36;4.30;;;4.10;;
9322;SDS011;4700;48.822;9.270;2023-02-03T07:36:22;4.43;;;4.10;;
9322;SDS011;4700;48.822;9.270;2023-02-03T07:39:08;3.90;;;3.60;;
9322;SDS011;4700;48.822;9.270;2023-02-03T07:44:25;3.27;;;3.00;;
9322;SDS011;4700;48.822;9.270;2023-02-03T07:47:11;5.33;;;4.80;;
9322;SDS011;4700;48.822;9.270;2023-02-03T07:49:58;4.53;;;4.10;;
9322;SDS011;4700;48.822;9.270;2023-02-03T07:52:44;3.97;;;3.77;;
9322;SDS011;4700;48.822;9.270;2023-02-03T07:55:30;9.87;;;4.70;;
9322;SDS011;4700;48.822;9.270;2023-02-03T07:58:16;8.37;;;4.07;;
9322;SDS011;4700;48.822;9.270;2023-02-03T08:01:08;11.93;;;3.63;;
9322;SDS011;4700;48.822;9.270;2023-02-03T08:03:55;5.03;;;4.20;;
9322;SDS011;4700;48.822;9.270;2023-02-03T08:06:49;4.93;;;4.40;;
9322;SDS011;4700;48.822;9.270;2023-02-03T08:09:35;10.77;;;4.53;;
9322;SDS011;4700;48.822;9.270;2023-02-03T08:12:21;3.97;;;3.23;;
9322;SDS011;4700;48.822;9.270;2023-02-03T08:15:10;7.27;;;5.40;;
9322;SDS011;4700;48.822;9.270;2023-02-03T08:17:56;8.60;;;6.80;;
9322;SDS011;4700;48.822;9.270;2023-02-03T08:20:42;15.20;;;7.03;;
9322;SDS011;4700;48.822;9.270;2023-02-03T08:23:29;6.43;;;5.77;;
9322;SDS011;4700;48.822;9.270;2023-02-03T08:26:15;9.93;;;7.50;;
9322;SDS011;4700;48.822;9.270;2023-02-03T08:29:02;5.10;;;4.47;;
9322;SDS011;4700;48.822;9.270;2023-02-03T08:31:50;7.57;;;6.37;;
9322;SDS011;4700;48.822;9.270;2023-02-03T08:34:38;12.13;;;8.60;;
9322;SDS011;4700;48.822;9.270;2023-02-03T08:37:23;17.90;;;9.80;;
9322;SDS011;4700;48.822;9.270;2023-02-03T08:40:15;7.70;;;5.20;;
9322;SDS011;4700;48.822;9.270;2023-02-03T08:43:02;6.73;;;5.67;;
9322;SDS011;4700;48.822;9.270;2023-02-03T08:45:48;9.20;;;5.70;;
9322;SDS011;4700;48.822;9.270;2023-02-03T08:48:34;9.70;;;5.30;;
9322;SDS011;4700;48.822;9.270;2023-02-03T08:51:20;13.60;;;6.93;;
9322;SDS011;4700;48.822;9.270;2023-02-03T08:54:07;12.60;;;7.03;;
9322;SDS011;4700;48.822;9.270;2023-02-03T08:56:54;11.67;;;6.90;;
9322;SDS011;4700;48.822;9.270;2023-02-03T08:59:41;20.20;;;8.83;;
9322;SDS011;4700;48.822;9.270;2023-02-03T09:02:27;16.20;;;8.83;;
9322;SDS011;4700;48.822;9.270;2023-02-03T09:05:13;10.97;;;6.93;;
9322;SDS011;4700;48.822;9.270;2023-02-03T09:08:01;12.57;;;7.60;;
9322;SDS011;4700;48.822;9.270;2023-02-03T09:10:47;8.97;;;6.17;;
9322;SDS011;4700;48.822;9.270;2023-02-03T09:13:34;17.83;;;9.33;;
9322;SDS011;4700;48.822;9.270;2023-02-03T09:16:20;8.63;;;6.03;;
9322;SDS011;4700;48.822;9.270;2023-02-03T09:19:06;19.23;;;9.67;;
9322;SDS011;4700;48.822;9.270;2023-02-03T09:21:52;17.00;;;7.90;;
9322;SDS011;4700;48.822;9.270;2023-02-03T09:24:39;10.10;;;6.63;;
9322;SDS011;4700;48.822;9.270;2023-02-03T09:27:26;10.17;;;6.07;;
9322;SDS011;4700;48.822;9.270;2023-02-03T09:30:14;12.07;;;6.20;;
9322;SDS011;4700;48.822;9.270;2023-02-03T09:33:00;21.93;;;9.90;;
9322;SDS011;4700;48.822;9.270;2023-02-03T09:35:50;12.47;;;6.03;;
9322;SDS011;4700;48.822;9.270;2023-02-03T09:38:36;10.60;;;5.40;;
9322;SDS011;4700;48.822;9.270;2023-02-03T09:41:27;12.47;;;6.50;;
9322;SDS011;4700;48.822;9.270;2023-02-03T09:44:28;17.20;;;7.33;;
9322;SDS011;4700;48.822;9.270;2023-02-03T09:47:21;6.47;;;3.77;;
9322;SDS011;4700;48.822;9.270;2023-02-03T09:50:11;8.17;;;4.87;;
9322;SDS011;4700;48.822;9.270;2023-02-03T09:53:05;9.60;;;5.53;;
9322;SDS011;4700;48.822;9.270;2023-02-03T09:55:58;11.37;;;6.03;;
9322;SDS011;4700;48.822;9.270;2023-02-03T09:58:44;13.53;;;6.50;;
9322;SDS011;4700;48.822;9.270;2023-02-03T10:01:33;4.10;;;3.10;;
9322;SDS011;4700;48.822;9.270;2023-02-03T10:04:30;6.73;;;3.90;;
9322;SDS011;4700;48.822;9.270;2023-02-03T10:07:22;13.23;;;6.83;;
9322;SDS011;4700;48.822;9.270;2023-02-03T10:10:15;11.50;;;6.00;;
9322;SDS011;4700;48.822;9.270;2023-02-03T10:13:09;13.00;;;6.00;;
9322;SDS011;4700;48.822;9.270;2023-02-03T10:16:13;4.83;;;3.23;;
9322;SDS011;4700;48.822;9.270;2023-02-03T10:19:08;7.40;;;4.37;;
9322;SDS011;4700;48.822;9.270;2023-02-03T10:22:00;9.30;;;4.87;;
9322;SDS011;4700;48.822;9.270;2023-02-03T10:24:49;6.87;;;4.53;;
9322;SDS011;4700;48.822;9.270;2023-02-03T10:27:39;9.73;;;5.43;;
9322;SDS011;4700;48.822;9.270;2023-02-03T10:30:27;4.40;;;2.87;;
9322;SDS011;4700;48.822;9.270;2023-02-03T10:33:17;8.53;;;4.70;;
9322;SDS011;4700;48.822;9.270;2023-02-03T10:36:06;2.77;;;2.53;;
9322;SDS011;4700;48.822;9.270;2023-02-03T10:39:06;10.10;;;5.00;;
9322;SDS011;4700;48.822;9.270;2023-02-03T10:42:02;8.30;;;4.30;;
9322;SDS011;4700;48.822;9.270;2023-02-03T10:44:51;11.90;;;6.13;;
9322;SDS011;4700;48.822;9.270;2023-02-03T10:47:40;15.80;;;7.93;;
9322;SDS011;4700;48.822;9.270;2023-02-03T10:50:29;9.53;;;4.77;;
9322;SDS011;4700;48.822;9.270;2023-02-03T10:53:19;11.63;;;6.07;;
9322;SDS011;4700;48.822;9.270;2023-02-03T10:56:11;14.70;;;6.30;;
9322;SDS011;4700;48.822;9.270;2023-02-03T10:59:00;11.37;;;5.60;;
9322;SDS011;4700;48.822;9.270;2023-02-03T11:01:47;12.00;;;5.53;;
9322;SDS011;4700;48.822;9.270;2023-02-03T11:04:33;12.77;;;6.10;;
9322;SDS011;4700;48.822;9.270;2023-02-03T11:07:23;6.53;;;2.97;;
9322;SDS011;4700;48.822;9.270;2023-02-03T11:10:27;11.57;;;6.30;;
9322;SDS011;4700;48.822;9.270;2023-02-03T11:13:19;10.43;;;5.20;;
9322;SDS011;4700;48.822;9.270;2023-02-03T11:16:06;17.80;;;7.83;;
9322;SDS011;4700;48.822;9.270;2023-02-03T11:18:57;9.77;;;4.80;;
9322;SDS011;4700;48.822;9.270;2023-02-03T11:21:46;12.20;;;6.10;;
9322;SDS011;4700;48.822;9.270;2023-02-03T11:24:36;6.10;;;3.60;;
9322;SDS011;4700;48.822;9.270;2023-02-03T11:27:28;6.40;;;3.20;;
9322;SDS011;4700;48.822;9.270;2023-02-03T11:30:18;6.90;;;4.10;;
9322;SDS011;4700;48.822;9.270;2023-02-03T11:33:13;5.20;;;3.37;;
9322;SDS011;4700;48.822;9.270;2023-02-03T11:36:02;10.27;;;5.37;;
9322;SDS011;4700;48.822;9.270;2023-02-03T11:38:48;8.37;;;2.93;;
9322;SDS011;4700;48.822;9.270;2023-02-03T11:41:35;9.83;;;3.30;;
9322;SDS011;4700;48.822;9.270;2023-02-03T11:44:23;6.50;;;3.50;;
9322;SDS011;4700;48.822;9.270;2023-02-03T11:47:13;5.47;;;3.00;;
9322;SDS011;4700;48.822;9.270;2023-02-03T11:50:06;3.97;;;2.70;;
9322;SDS011;4700;48.822;9.270;2023-02-03T11:53:17;11.47;;;4.97;;
9322;SDS011;4700;48.822;9.270;2023-02-03T11:56:24;11.43;;;5.23;;
9322;SDS011;4700;48.822;9.270;2023-02-03T11:59:35;8.53;;;4.40;;
9322;SDS011;4700;48.822;9.270;2023-02-03T12:02:40;5.40;;;2.90;;
9322;SDS011;4700;48.822;9.270;2023-02-03T12:05:51;6.93;;;3.53;;
9322;SDS011;4700;48.822;9.270;2023-02-03T12:08:47;7.57;;;4.57;;
9322;SDS011;4700;48.822;9.270;2023-02-03T12:11:55;11.63;;;5.33;;
9322;SDS011;4700;48.822;9.270;2023-02-03T12:14:53;15.93;;;6.70;;
9322;SDS011;4700;48.822;9.270;2023-02-03T12:17:52;9.97;;;4.77;;
9322;SDS011;4700;48.822;9.270;2023-02-03T12:21:02;7.60;;;3.53;;
9322;SDS011;4700;48.822;9.270;2023-02-03T12:23:58;14.90;;;6.37;;
9322;SDS011;4700;48.822;9.270;2023-02-03T12:26:49;6.97;;;4.10;;
9322;SDS011;4700;48.822;9.270;2023-02-03T12:29:46;2.13;;;1.90;;
9322;SDS011;4700;48.822;9.270;2023-02-03T12:32:37;7.43;;;4.53;;
9322;SDS011;4700;48.822;9.270;2023-02-03T12:35:31;8.20;;;4.17;;
9322;SDS011;4700;48.822;9.270;2023-02-03T12:38:22;3.40;;;2.80;;
9322;SDS011;4700;48.822;9.270;2023-02-03T12:41:14;10.13;;;4.97;;
9322;SDS011;4700;48.822;9.270;2023-02-03T12:44:06;5.73;;;3.30;;
9322;SDS011;4700;48.822;9.270;2023-02-03T12:47:00;13.60;;;5.23;;
9322;SDS011;4700;48.822;9.270;2023-02-03T12:49:49;3.80;;;2.40;;
9322;SDS011;4700;48.822;9.270;2023-02-03T12:52:41;6.90;;;3.70;;
9322;SDS011;4700;48.822;9.270;2023-02-03T12:55:32;13.70;;;6.60;;
9322;SDS011;4700;48.822;9.270;2023-02-03T12:58:24;10.00;;;5.73;;
9322;SDS011;4700;48.822;9.270;2023-02-03T13:01:13;15.00;;;7.33;;
9322;SDS011;4700;48.822;9.270;2023-02-03T13:04:07;4.50;;;2.83;;
9322;SDS011;4700;48.822;9.270;2023-02-03T13:06:59;10.93;;;5.63;;
9322;SDS011;4700;48.822;9.270;2023-02-03T13:09:55;2.10;;;1.70;;
9322;SDS011;4700;48.822;9.270;2023-02-03T13:12:45;9.53;;;5.20;;
9322;SDS011;4700;48.822;9.270;2023-02-03T13:15:36;15.50;;;7.00;;
9322;SDS011;4700;48.822;9.270;2023-02-03T13:18:25;12.53;;;6.53;;
9322;SDS011;4700;48.822;9.270;2023-02-03T13:21:15;7.70;;;4.10;;
9322;SDS011;4700;48.822;9.270;2023-02-03T13:24:01;5.67;;;3.30;;
9322;SDS011;4700;48.822;9.270;2023-02-03T13:27:02;4.10;;;3.03;;
9322;SDS011;4700;48.822;9.270;2023-02-03T13:30:02;10.20;;;5.00;;
9322;SDS011;4700;48.822;9.270;2023-02-03T13:33:07;10.17;;;5.17;;
9322;SDS011;4700;48.822;9.270;2023-02-03T13:36:37;10.30;;;5.83;;
9322;SDS011;4700;48.822;9.270;2023-02-03T13:39:37;5.30;;;4.67;;
9322;SDS011;4700;48.822;9.270;2023-02-03T13:42:41;8.00;;;5.47;;
9322;SDS011;4700;48.822;9.270;2023-02-03T13:45:30;9.83;;;5.80;;
9322;SDS011;4700;48.822;9.270;2023-02-03T13:48:22;8.87;;;5.43;;
9322;SDS011;4700;48.822;9.270;2023-02-03T13:51:12;12.77;;;6.60;;
9322;SDS011;4700;48.822;9.270;2023-02-03T13:54:01;7.83;;;5.50;;
9322;SDS011;4700;48.822;9.270;2023-02-03T13:56:52;8.20;;;5.23;;
9322;SDS011;4700;48.822;9.270;2023-02-03T13:59:47;18.97;;;9.63;;
9322;SDS011;4700;48.822;9.270;2023-02-03T14:05:39;10.10;;;7.27;;
9322;SDS011;4700;48.822;9.270;2023-02-03T14:11:43;11.63;;;7.60;;
9322;SDS011;4700;48.822;9.270;2023-02-03T14:14:40;11.93;;;7.23;;
9322;SDS011;4700;48.822;9.270;2023-02-03T14:21:10;8.57;;;6.60;;
9322;SDS011;4700;48.822;9.270;2023-02-03T14:24:04;13.20;;;6.97;;
9322;SDS011;4700;48.822;9.270;2023-02-03T14:26:53;14.23;;;7.00;;
9322;SDS011;4700;48.822;9.270;2023-02-03T14:29:41;3.30;;;3.00;;
9322;SDS011;4700;48.822;9.270;2023-02-03T14:32:33;5.00;;;3.70;;
9322;SDS011;4700;48.822;9.270;2023-02-03T14:35:33;18.33;;;9.20;;
9322;SDS011;4700;48.822;9.270;2023-02-03T14:38:29;5.57;;;3.67;;
9322;SDS011;4700;48.822;9.270;2023-02-03T14:41:17;11.03;;;5.77;;
9322;SDS011;4700;48.822;9.270;2023-02-03T14:44:07;6.40;;;4.00;;
9322;SDS011;4700;48.822;9.270;2023-02-03T14:46:58;7.30;;;4.40;;
9322;SDS011;4700;48.822;9.270;2023-02-03T14:50:06;11.93;;;6.20;;
9322;SDS011;4700;48.822;9.270;2023-02-03T14:53:08;7.17;;;4.10;;
9322;SDS011;4700;48.822;9.270;2023-02-03T14:56:10;8.43;;;4.83;;
9322;SDS011;4700;48.822;9.270;2023-02-03T14:59:02;6.70;;;4.27;;
9322;SDS011;4700;48.822;9.270;2023-02-03T15:02:08;20.03;;;9.57;;
9322;SDS011;4700;48.822;9.270;2023-02-03T15:11:41;9.00;;;5.50;;
9322;SDS011;4700;48.822;9.270;2023-02-03T15:14:28;11.10;;;6.30;;
9322;SDS011;4700;48.822;9.270;2023-02-03T15:17:19;16.23;;;8.10;;
9322;SDS011;4700;48.822;9.270;2023-02-03T15:23:19;13.40;;;6.80;;
9322;SDS011;4700;48.822;9.270;2023-02-03T15:26:09;5.83;;;3.80;;
9322;SDS011;4700;48.822;9.270;2023-02-03T15:28:59;9.27;;;4.97;;
9322;SDS011;4700;48.822;9.270;2023-02-03T15:31:47;3.87;;;3.20;;
9322;SDS011;4700;48.822;9.270;2023-02-03T15:34:37;8.30;;;4.60;;
9322;SDS011;4700;48.822;9.270;2023-02-03T15:37:27;3.77;;;3.13;;
9322;SDS011;4700;48.822;9.270;2023-02-03T15:40:18;6.13;;;4.00;;
9322;SDS011;4700;48.822;9.270;2023-02-03T15:43:06;4.63;;;3.13;;
9322;SDS011;4700;48.822;9.270;2023-02-03T15:46:00;19.40;;;9.00;;
9322;SDS011;4700;48.822;9.270;2023-02-03T15:48:51;10.97;;;5.93;;
9322;SDS011;4700;48.822;9.270;2023-02-03T15:51:42;13.20;;;6.63;;
9322;SDS011;4700;48.822;9.270;2023-02-03T15:54:31;8.43;;;5.00;;
9322;SDS011;4700;48.822;9.270;2023-02-03T15:57:24;14.80;;;6.80;;
9322;SDS011;4700;48.822;9.270;2023-02-03T16:00:22;6.13;;;4.07;;
9322;SDS011;4700;48.822;9.270;2023-02-03T16:03:19;13.10;;;7.20;;
9322;SDS011;4700;48.822;9.270;2023-02-03T16:06:08;12.77;;;7.33;;
9322;SDS011;4700;48.822;9.270;2023-02-03T16:08:59;12.87;;;7.10;;
9322;SDS011;4700;48.822;9.270;2023-02-03T16:11:45;3.00;;;2.50;;
9322;SDS011;4700;48.822;9.270;2023-02-03T16:14:31;18.63;;;8.93;;
9322;SDS011;4700;48.822;9.270;2023-02-03T16:17:22;12.33;;;6.93;;
9322;SDS011;4700;48.822;9.270;2023-02-03T16:20:23;6.00;;;4.53;;
9322;SDS011;4700;48.822;9.270;2023-02-03T16:23:16;11.40;;;7.30;;
9322;SDS011;4700;48.822;9.270;2023-02-03T16:26:05;9.73;;;6.60;;
9322;SDS011;4700;48.822;9.270;2023-02-03T16:29:11;10.80;;;8.33;;
9322;SDS011;4700;48.822;9.270;2023-02-03T16:32:16;8.07;;;7.40;;
9322;SDS011;4700;48.822;9.270;2023-02-03T16:35:20;10.13;;;6.07;;
9322;SDS011;4700;48.822;9.270;2023-02-03T16:38:26;9.67;;;8.70;;
9322;SDS011;4700;48.822;9.270;2023-02-03T16:41:29;6.10;;;5.00;;
9322;SDS011;4700;48.822;9.270;2023-02-03T16:44:33;9.70;;;7.90;;
9322;SDS011;4700;48.822;9.270;2023-02-03T16:47:20;5.40;;;4.70;;
9322;SDS011;4700;48.822;9.270;2023-02-03T16:50:27;5.87;;;5.40;;
9322;SDS011;4700;48.822;9.270;2023-02-03T16:53:31;9.30;;;7.33;;
9322;SDS011;4700;48.822;9.270;2023-02-03T16:56:17;10.77;;;6.73;;
9322;SDS011;4700;48.822;9.270;2023-02-03T16:59:03;4.63;;;4.20;;
9322;SDS011;4700;48.822;9.270;2023-02-03T17:01:49;5.13;;;4.63;;
9322;SDS011;4700;48.822;9.270;2023-02-03T17:04:35;8.13;;;5.50;;
9322;SDS011;4700;48.822;9.270;2023-02-03T17:07:22;9.37;;;5.47;;
9322;SDS011;4700;48.822;9.270;2023-02-03T17:10:08;7.83;;;4.43;;
9322;SDS011;4700;48.822;9.270;2023-02-03T17:12:54;3.63;;;3.30;;
9322;SDS011;4700;48.822;9.270;2023-02-03T17:15:44;5.50;;;3.97;;
9322;SDS011;4700;48.822;9.270;2023-02-03T17:18:32;5.30;;;4.80;;
9322;SDS011;4700;48.822;9.270;2023-02-03T17:21:18;4.60;;;3.60;;
9322;SDS011;4700;48.822;9.270;2023-02-03T17:24:07;4.17;;;3.50;;
9322;SDS011;4700;48.822;9.270;2023-02-03T17:26:55;4.30;;;3.53;;
9322;SDS011;4700;48.822;9.270;2023-02-03T17:29:40;3.80;;;3.50;;
9322;SDS011;4700;48.822;9.270;2023-02-03T17:32:26;9.37;;;5.80;;
9322;SDS011;4700;48.822;9.270;2023-02-03T17:35:12;5.33;;;3.87;;
9322;SDS011;4700;48.822;9.270;2023-02-03T17:37:58;7.83;;;4.60;;
9322;SDS011;4700;48.822;9.270;2023-02-03T17:40:45;5.50;;;4.13;;
9322;SDS011;4700;48.822;9.270;2023-02-03T17:43:31;2.60;;;2.50;;
9322;SDS011;4700;48.822;9.270;2023-02-03T17:46:18;2.80;;;2.60;;
9322;SDS011;4700;48.822;9.270;2023-02-03T17:49:05;4.17;;;3.67;;
9322;SDS011;4700;48.822;9.270;2023-02-03T17:51:53;4.03;;;3.73;;
9322;SDS011;4700;48.822;9.270;2023-02-03T17:54:39;4.53;;;4.00;;
9322;SDS011;4700;48.822;9.270;2023-02-03T17:57:26;2.97;;;2.83;;
9322;SDS011;4700;48.822;9.270;2023-02-03T18:00:13;4.33;;;3.73;;